Corte Madera, CA (94925)

2:57 PM PDT on August 30, 2016 (GMT -0700)
Ash Avenue | | Change Station

Elev 49 ft 37.93 °N, 122.52 °W | Updated 3 minutes ago

Partly Cloudy
Partly Cloudy
82.0 °F
Feels Like 82 °F
N
5.6
Wind Variable Wind from North
Gusts 11.8 mph

Today
High -- | Low -- °F
--% Chance of Precip.
Yesterday
High -- | Low -- °F
Precip. -- in
Pressure 29.97 in
Visibility 10.0 miles
Clouds Few 1000 ft
Heat Index 82 °F
Dew Point 60 °F
Humidity 47%
Rainfall 0.00 in
Snow Depth Not available.
6:38 AM 7:41 PM
Waning Crescent, 2% visible
METAR KOAK 302153Z 27011KT 10SM FEW010 23/14 A2997 RMK AO2 SLP147 T02280144
Pressure 29.97 in
Visibility 10.0 miles
Clouds Few 1000 ft
Heat Index 82 °F
Dew Point 60 °F
Humidity 47%
Rainfall 0.00 in
Snow Depth Not available.
6:38 AM 7:41 PM
Waning Crescent, 2% visible
METAR KOAK 302153Z 27011KT 10SM FEW010 23/14 A2997 RMK AO2 SLP147 T02280144

10-Day Weather Forecast

Almanac

Astronomy

Aug. 30, 2016 Rise Set
Actual Time
Civil Twilight
Nautical Twilight
Astronomical Twilight
Moon
Length of Visible Light
Length of Day
Tomorrow will be .
, % of the Moon is Illuminated

Today's Extremes

State Highs State Lows

Community

WunderPhotos

Upload Photos

1,935,901 photos uploaded!

WunderBlog® & News

Nearby

Air Quality

  Air Quality AQ Index Pollutant
Not available.

Snow Depth

Station Depth Elevation

Earthquake Activity

City Distance Mag. Time & Date
Minimum magnitude displayed is 2.5.

Coastal Water Temperatures

Place Temperature

Stations

Nearby Weather Stations

Station Location Temp. Windchill Dew Point Humidity Wind Precip. Elev Updated Type
                   

Watches & Warnings

There are currently no watches in effect.